Time;durP1;ratioP1;P1;durP2;ratioP2;P2;SDS_P1;SDS_P2;PMS_P1;PMS_P2;Temp;Humidity;BMP_temperature;BMP_pressure;BME280_temperature;BME280_humidity;BME280_pressure;Samples;Min_cycle;Max_cycle;Signal;HPM_P1;HPM_P2
2022/06/07 00:00:04;;;;;;;2.65;2.00;;;;;;;19.20;60.96;99486.22;344055;28;1864;-66
2022/06/07 00:00:17;;;;;;;3.15;2.10;;;;;;;19.18;61.00;99483.66;344226;28;1811;-66
2022/06/07 00:00:30;;;;;;;2.70;2.00;;;;;;;19.20;61.02;99486.22;345445;28;1373;-66
2022/06/07 00:00:43;;;;;;;2.85;2.00;;;;;;;19.19;61.01;99492.41;344708;28;1961;-66
2022/06/07 00:00:55;;;;;;;2.90;2.00;;;;;;;19.20;60.99;99491.47;343293;28;1190;-66
2022/06/07 00:01:07;;;;;;;3.35;2.00;;;;;;;19.19;61.16;99484.50;343485;28;1291;-66
2022/06/07 00:01:19;;;;;;;3.13;1.90;;;;;;;19.20;61.17;99489.69;343392;28;1028;-66
2022/06/07 00:01:31;;;;;;;2.72;2.00;;;;;;;19.22;61.07;99489.56;343411;28;1223;-66
2022/06/07 00:01:43;;;;;;;2.33;2.00;;;;;;;19.20;61.04;99491.47;343246;28;1898;-66
2022/06/07 00:01:55;;;;;;;2.38;1.95;;;;;;;19.21;60.84;99487.88;342840;28;1962;-66
2022/06/07 00:02:08;;;;;;;2.20;2.00;;;;;;;19.19;60.94;99484.50;342922;28;1536;-66
2022/06/07 00:02:25;;;;;;;2.35;2.03;;;;;;;19.19;60.83;99495.03;343040;28;1501;-66
2022/06/07 00:02:37;;;;;;;2.13;1.90;;;;;;;19.22;60.89;99486.94;342535;28;1310;-66
2022/06/07 00:02:50;;;;;;;2.70;1.92;;;;;;;19.21;60.70;99487.88;343650;28;2071;-66
2022/06/07 00:03:04;;;;;;;2.40;1.98;;;;;;;19.18;60.46;99488.09;343481;28;1874;-66
2022/06/07 00:03:16;;;;;;;3.55;2.20;;;;;;;19.16;60.82;99491.69;344866;28;1279;-66
2022/06/07 00:03:29;;;;;;;4.30;2.20;;;;;;;19.18;60.71;99485.47;345356;28;1376;-66
2022/06/07 00:03:42;;;;;;;4.05;1.98;;;;;;;19.15;60.95;99492.63;344201;28;2026;-66
2022/06/07 00:03:55;;;;;;;3.65;1.95;;;;;;;19.14;60.85;99488.31;344297;28;1718;-66
2022/06/07 00:04:07;;;;;;;3.13;1.90;;;;;;;19.16;60.92;99486.41;344058;28;1924;-66
2022/06/07 00:04:20;;;;;;;2.53;1.88;;;;;;;19.14;60.70;99490.13;344687;28;1106;-66
2022/06/07 00:04:35;;;;;;;2.55;1.90;;;;;;;19.13;60.81;99489.25;344787;28;1667;-66
2022/06/07 00:04:47;;;;;;;3.13;1.85;;;;;;;19.14;60.83;99493.59;344505;28;1049;-66
2022/06/07 00:04:59;;;;;;;4.03;1.98;;;;;;;19.14;60.91;99483.03;343077;28;1051;-66
2022/06/07 00:05:11;;;;;;;3.58;2.00;;;;;;;19.14;60.85;99493.59;343539;28;1019;-66
2022/06/07 00:05:24;;;;;;;3.63;2.00;;;;;;;19.11;60.96;99499.06;343826;28;1063;-66
2022/06/07 00:05:36;;;;;;;2.45;1.90;;;;;;;19.09;61.17;99493.06;343705;28;1043;-66
2022/06/07 00:05:48;;;;;;;2.90;1.80;;;;;;;19.10;60.97;99486.84;343240;28;1907;-66
2022/06/07 00:06:00;;;;;;;3.05;1.85;;;;;;;19.11;61.00;99492.94;344012;28;1884;-66
2022/06/07 00:06:12;;;;;;;3.33;1.80;;;;;;;19.11;60.83;99485.88;344579;28;1147;-66
2022/06/07 00:06:24;;;;;;;3.30;1.90;;;;;;;19.10;61.15;99480.75;344650;28;1142;-66
2022/06/07 00:06:36;;;;;;;3.60;2.00;;;;;;;19.12;61.12;99487.56;346118;28;1134;-66
2022/06/07 00:06:48;;;;;;;3.33;1.98;;;;;;;19.10;61.09;99492.13;344668;28;1852;-66
2022/06/07 00:07:01;;;;;;;3.30;1.98;;;;;;;19.13;61.16;99485.78;344527;28;1072;-66
2022/06/07 00:07:13;;;;;;;2.13;1.92;;;;;;;19.11;61.26;99488.50;342598;28;1971;-66
2022/06/07 00:07:26;;;;;;;2.83;1.90;;;;;;;19.10;60.99;99491.28;343379;28;1564;-66
2022/06/07 00:07:39;;;;;;;4.20;2.00;;;;;;;19.10;61.22;99493.91;342136;28;1104;-66
2022/06/07 00:07:54;;;;;;;4.80;1.90;;;;;;;19.11;61.22;99488.50;342523;28;2307;-66
2022/06/07 00:08:06;;;;;;;3.05;1.90;;;;;;;19.08;61.08;99487.91;342580;28;1752;-66
2022/06/07 00:08:18;;;;;;;2.63;1.90;;;;;;;19.04;61.33;99492.53;343634;28;1661;-66
2022/06/07 00:08:31;;;;;;;2.42;1.98;;;;;;;19.04;61.19;99492.53;343607;28;1314;-66
2022/06/07 00:08:43;;;;;;;2.30;1.90;;;;;;;19.00;61.30;99491.06;342066;28;1350;-67
2022/06/07 00:08:55;;;;;;;2.85;1.85;;;;;;;19.00;61.28;99490.25;341781;28;1669;-66
2022/06/07 00:09:07;;;;;;;3.92;1.85;;;;;;;18.99;61.40;99489.38;342081;28;1958;-66
2022/06/07 00:09:19;;;;;;;4.13;1.90;;;;;;;19.00;61.39;99491.06;343088;28;1067;-66
2022/06/07 00:09:31;;;;;;;3.85;1.98;;;;;;;18.99;61.60;99492.00;343022;28;1319;-66
2022/06/07 00:09:43;;;;;;;3.92;2.00;;;;;;;19.03;61.45;99495.28;343529;28;1015;-66
2022/06/07 00:09:56;;;;;;;3.58;1.90;;;;;;;19.03;61.49;99496.13;342084;28;1419;-66
2022/06/07 00:10:08;;;;;;;2.55;1.90;;;;;;;19.05;61.27;99488.94;342136;28;1153;-66
2022/06/07 00:10:22;;;;;;;2.70;1.98;;;;;;;19.05;61.63;99494.22;342177;28;1311;-66
2022/06/07 00:10:34;;;;;;;3.42;2.00;;;;;;;19.03;61.74;99490.84;340916;28;1914;-66
2022/06/07 00:10:47;;;;;;;4.00;1.90;;;;;;;19.05;61.59;99496.84;341399;28;1794;-66
2022/06/07 00:10:59;;;;;;;3.47;1.80;;;;;;;19.05;61.73;99494.22;342855;28;1709;-66
2022/06/07 00:11:11;;;;;;;3.28;1.90;;;;;;;19.03;61.65;99490.84;343541;28;1107;-66
2022/06/07 00:11:23;;;;;;;3.22;2.00;;;;;;;19.04;61.52;99494.34;343320;28;1092;-66
2022/06/07 00:11:35;;;;;;;3.28;1.90;;;;;;;19.05;61.48;99496.03;343498;28;1184;-66
2022/06/07 00:11:47;;;;;;;2.92;1.70;;;;;;;19.05;61.40;99496.84;343222;28;1889;-66
2022/06/07 00:12:00;;;;;;;3.70;1.85;;;;;;;19.05;61.46;99496.03;342399;28;1749;-66
2022/06/07 00:12:12;;;;;;;4.22;2.05;;;;;;;19.05;61.37;99494.22;343728;28;1090;-66
2022/06/07 00:12:25;;;;;;;4.30;2.20;;;;;;;19.05;61.47;99499.47;343368;28;1255;-66
2022/06/07 00:12:37;;;;;;;4.50;2.05;;;;;;;19.03;61.44;99490.84;342302;28;1034;-66
2022/06/07 00:12:49;;;;;;;4.05;1.88;;;;;;;19.03;61.42;99490.84;341998;28;2575;-66
2022/06/07 00:13:01;;;;;;;3.03;1.88;;;;;;;19.01;61.38;99492.75;342921;28;1990;-66
2022/06/07 00:13:15;;;;;;;2.70;1.95;;;;;;;19.03;61.39;99493.47;343589;28;1109;-66
2022/06/07 00:13:27;;;;;;;3.70;1.92;;;;;;;19.04;61.38;99492.53;342569;28;1905;-66
2022/06/07 00:13:39;;;;;;;4.82;2.00;;;;;;;19.04;61.51;99489.91;343727;28;1169;-66
2022/06/07 00:13:52;;;;;;;6.07;2.10;;;;;;;19.02;61.50;99491.81;342545;28;1909;-66
2022/06/07 00:14:04;;;;;;;6.13;2.15;;;;;;;19.02;61.44;99489.19;344818;28;1563;-66
2022/06/07 00:14:16;;;;;;;5.90;2.00;;;;;;;19.04;61.47;99494.34;345007;28;1107;-66
2022/06/07 00:14:28;;;;;;;3.97;2.00;;;;;;;19.04;61.51;99492.53;344645;28;1873;-66
2022/06/07 00:14:40;;;;;;;3.42;1.90;;;;;;;19.05;61.46;99494.22;344561;28;1606;-66
2022/06/07 00:14:52;;;;;;;4.20;1.90;;;;;;;19.05;61.40;99494.22;343577;28;1950;-66
2022/06/07 00:15:05;;;;;;;2.78;1.80;;;;;;;19.08;61.35;99491.38;344378;28;1895;-66
2022/06/07 00:15:17;;;;;;;2.38;1.80;;;;;;;19.08;61.42;99494.00;344857;28;1019;-66
2022/06/07 00:15:29;;;;;;;3.40;1.90;;;;;;;19.09;61.33;99495.69;345374;28;1316;-66
2022/06/07 00:15:43;;;;;;;4.03;2.10;;;;;;;19.09;61.30;99495.69;343648;28;1282;-66
2022/06/07 00:15:55;;;;;;;3.38;2.00;;;;;;;19.11;61.32;99493.78;344664;28;2167;-66
2022/06/07 00:16:07;;;;;;;3.30;1.85;;;;;;;19.07;61.27;99492.31;344651;28;1520;-66
2022/06/07 00:16:19;;;;;;;2.78;1.88;;;;;;;19.07;61.21;99492.31;344873;28;1031;-66
2022/06/07 00:16:31;;;;;;;3.42;1.95;;;;;;;19.08;61.37;99490.53;345830;28;1275;-66
2022/06/07 00:16:43;;;;;;;3.45;2.10;;;;;;;19.09;61.18;99495.69;346086;28;1234;-66
2022/06/07 00:16:55;;;;;;;2.90;2.10;;;;;;;19.08;61.27;99493.19;346485;28;1279;-66
2022/06/07 00:17:07;;;;;;;3.25;2.00;;;;;;;19.06;61.41;99490.66;346766;28;735;-66
2022/06/07 00:17:20;;;;;;;3.17;1.92;;;;;;;19.06;61.45;99495.91;343542;28;1950;-66
2022/06/07 00:17:32;;;;;;;3.08;1.90;;;;;;;19.04;61.44;99491.72;342363;28;1743;-66
2022/06/07 00:17:45;;;;;;;3.30;1.75;;;;;;;19.03;61.32;99490.84;343463;28;1075;-66
2022/06/07 00:17:57;;;;;;;3.67;1.85;;;;;;;19.04;61.27;99491.72;343318;28;1619;-66
2022/06/07 00:18:11;;;;;;;2.83;1.88;;;;;;;19.03;61.31;99490.84;343342;28;1102;-66
2022/06/07 00:18:23;;;;;;;3.20;1.83;;;;;;;19.01;61.55;99491.91;342781;28;2131;-66
2022/06/07 00:18:35;;;;;;;2.90;1.80;;;;;;;18.91;61.59;99491.72;343225;28;1411;-66
2022/06/07 00:18:47;;;;;;;3.15;1.85;;;;;;;18.90;61.72;99490.88;343065;28;1821;-66
2022/06/07 00:18:59;;;;;;;3.00;2.00;;;;;;;18.88;61.89;99494.56;343090;28;2253;-66
2022/06/07 00:19:11;;;;;;;2.85;2.03;;;;;;;18.88;61.74;99486.66;343389;28;1080;-66
2022/06/07 00:19:23;;;;;;;3.55;2.15;;;;;;;18.87;61.97;99484.97;343327;28;1162;-66
2022/06/07 00:19:35;;;;;;;3.47;2.10;;;;;;;18.88;61.95;99489.31;342298;28;2017;-66
2022/06/07 00:19:48;;;;;;;3.38;1.90;;;;;;;18.90;61.88;99490.03;341933;28;1968;-66
2022/06/07 00:20:00;;;;;;;2.60;1.70;;;;;;;18.92;61.75;99494.25;342343;28;1851;-66
2022/06/07 00:20:13;;;;;;;2.55;1.80;;;;;;;18.95;61.91;99498.44;343412;28;1084;-66
2022/06/07 00:20:25;;;;;;;3.47;1.88;;;;;;;18.94;61.67;99494.16;342842;28;1990;-66
2022/06/07 00:20:39;;;;;;;4.05;1.90;;;;;;;18.92;61.69;99493.41;343473;28;1282;-66
2022/06/07 00:20:51;;;;;;;3.38;1.80;;;;;;;18.93;61.79;99489.81;343208;28;1975;-66
2022/06/07 00:21:03;;;;;;;2.05;1.70;;;;;;;18.94;61.64;99494.16;342586;28;1938;-66
2022/06/07 00:21:15;;;;;;;2.08;1.70;;;;;;;18.93;61.83;99489.81;344338;28;1265;-66
2022/06/07 00:21:29;;;;;;;2.60;1.80;;;;;;;18.94;61.89;99491.50;344896;28;1307;-66
2022/06/07 00:21:41;;;;;;;2.88;1.88;;;;;;;18.92;61.81;99496.88;344905;28;1123;-66
2022/06/07 00:21:53;;;;;;;2.70;1.90;;;;;;;18.89;61.79;99493.59;344111;28;1955;-66
2022/06/07 00:22:06;;;;;;;3.00;2.00;;;;;;;18.91;61.88;99496.97;344593;28;1721;-66
2022/06/07 00:22:18;;;;;;;3.78;1.92;;;;;;;18.90;61.87;99496.16;344851;28;1297;-66
2022/06/07 00:22:30;;;;;;;3.83;1.90;;;;;;;18.92;61.85;99493.41;344192;28;1789;-66
2022/06/07 00:22:42;;;;;;;4.10;1.98;;;;;;;18.92;61.79;99493.41;345039;28;1578;-65
2022/06/07 00:22:55;;;;;;;4.82;2.03;;;;;;;18.93;61.85;99489.81;343572;28;1822;-66
2022/06/07 00:23:10;;;;;;;4.85;1.92;;;;;;;18.95;61.81;99493.19;344724;28;1965;-66
2022/06/07 00:23:22;;;;;;;3.25;1.95;;;;;;;18.96;61.86;99495.72;344726;28;998;-66
2022/06/07 00:23:35;;;;;;;2.95;1.90;;;;;;;18.98;61.73;99492.97;344122;28;1618;-66
2022/06/07 00:23:47;;;;;;;4.43;1.83;;;;;;;19.01;61.36;99491.91;344100;28;1895;-66
2022/06/07 00:24:00;;;;;;;5.35;1.77;;;;;;;18.96;61.59;99495.72;344521;28;2120;-66
2022/06/07 00:24:13;;;;;;;4.47;1.75;;;;;;;18.95;61.39;99487.91;344839;28;1253;-66
2022/06/07 00:24:26;;;;;;;3.70;1.85;;;;;;;18.99;61.33;99493.81;344812;28;1278;-66
2022/06/07 00:24:39;;;;;;;4.10;1.88;;;;;;;18.99;61.27;99494.66;344877;28;1015;-66
2022/06/07 00:24:51;;;;;;;3.15;2.00;;;;;;;18.95;61.31;99498.44;343719;28;1971;-66
2022/06/07 00:25:09;;;;;;;2.97;2.00;;;;;;;18.94;61.65;99497.63;343845;28;1984;-66
2022/06/07 00:25:21;;;;;;;2.33;2.00;;;;;;;18.95;61.35;99495.81;344740;28;1206;-66
2022/06/07 00:25:33;;;;;;;2.13;1.92;;;;;;;18.96;61.40;99500.97;343576;28;1829;-66
2022/06/07 00:25:50;;;;;;;2.10;1.80;;;;;;;18.95;61.49;99503.72;344732;28;1880;-66
2022/06/07 00:26:04;;;;;;;2.60;1.80;;;;;;;18.92;61.59;99501.31;344715;28;1061;-66
2022/06/07 00:26:16;;;;;;;3.80;1.90;;;;;;;18.90;61.55;99501.41;344845;28;1100;-66
2022/06/07 00:26:29;;;;;;;3.92;1.85;;;;;;;18.89;61.54;99502.34;345383;28;1188;-66
2022/06/07 00:26:42;;;;;;;4.05;1.92;;;;;;;18.91;61.43;99500.47;346256;28;1307;-66
2022/06/07 00:26:54;;;;;;;3.60;1.80;;;;;;;18.92;61.39;99499.50;344348;28;2315;-66
2022/06/07 00:27:06;;;;;;;4.53;1.75;;;;;;;18.87;61.60;99498.97;344623;28;1625;-66
2022/06/07 00:27:19;;;;;;;3.60;1.75;;;;;;;18.88;61.53;99499.84;344935;28;1113;-66
2022/06/07 00:27:31;;;;;;;2.45;1.85;;;;;;;18.87;61.56;99495.50;344208;28;1557;-66
2022/06/07 00:27:44;;;;;;;2.67;1.80;;;;;;;18.87;61.58;99495.50;344910;28;1098;-66
2022/06/07 00:27:56;;;;;;;4.13;1.75;;;;;;;18.83;61.90;99500.13;343833;28;1513;-66
2022/06/07 00:28:08;;;;;;;4.50;1.77;;;;;;;18.81;61.80;99494.13;344498;28;1779;-66
2022/06/07 00:28:21;;;;;;;3.15;1.90;;;;;;;18.83;61.68;99499.31;344664;28;1070;-66
2022/06/07 00:28:34;;;;;;;3.40;2.08;;;;;;;18.84;61.65;99495.75;344152;28;1753;-66
2022/06/07 00:28:46;;;;;;;4.13;2.10;;;;;;;18.84;61.52;99496.56;343331;28;1805;-66
2022/06/07 00:29:00;;;;;;;2.92;1.90;;;;;;;18.88;61.69;99499.84;343596;28;1643;-66
2022/06/07 00:29:13;;;;;;;3.33;1.83;;;;;;;18.88;61.67;99497.22;342462;28;1654;-66
2022/06/07 00:29:26;;;;;;;4.05;1.83;;;;;;;18.89;61.75;99501.50;343468;28;1345;-66
2022/06/07 00:29:40;;;;;;;2.97;1.73;;;;;;;18.88;61.88;99500.69;344946;28;1053;-66
2022/06/07 00:29:52;;;;;;;3.40;1.80;;;;;;;18.87;61.71;99500.78;342944;28;1765;-66
2022/06/07 00:30:06;;;;;;;2.92;1.80;;;;;;;18.86;61.83;99499.09;343147;28;1797;-66
2022/06/07 00:30:18;;;;;;;2.65;1.73;;;;;;;18.88;61.78;99502.47;343435;28;1243;-66
2022/06/07 00:30:31;;;;;;;2.60;1.73;;;;;;;18.89;61.53;99498.88;343986;28;1390;-65
2022/06/07 00:30:44;;;;;;;2.63;1.77;;;;;;;18.89;61.75;99504.16;344664;28;1119;-66
2022/06/07 00:30:56;;;;;;;2.80;1.83;;;;;;;18.89;61.79;99491.81;343411;28;1949;-66
2022/06/07 00:31:09;;;;;;;2.65;1.80;;;;;;;18.92;61.70;99498.69;344955;28;1226;-66
2022/06/07 00:31:21;;;;;;;3.42;1.90;;;;;;;18.94;61.60;99496.78;344639;28;1916;-66
2022/06/07 00:31:35;;;;;;;2.85;1.80;;;;;;;18.93;61.61;99498.56;344459;28;1717;-66
2022/06/07 00:31:47;;;;;;;2.92;1.90;;;;;;;18.95;61.40;99493.19;344774;28;1130;-66
2022/06/07 00:32:01;;;;;;;2.92;1.90;;;;;;;18.93;61.44;99495.06;344955;28;1075;-66
2022/06/07 00:32:15;;;;;;;2.75;1.90;;;;;;;18.91;61.45;99497.84;344532;28;1188;-66
2022/06/07 00:32:27;;;;;;;3.03;1.90;;;;;;;18.91;61.48;99499.59;343313;28;1822;-66
2022/06/07 00:32:40;;;;;;;2.75;1.80;;;;;;;18.91;61.21;99496.97;343945;28;2028;-66
2022/06/07 00:32:53;;;;;;;2.42;1.70;;;;;;;18.87;61.08;99491.06;344098;28;1966;-66
2022/06/07 00:33:06;;;;;;;3.45;1.70;;;;;;;18.82;61.24;99497.63;344589;28;1071;-66
2022/06/07 00:33:21;;;;;;;3.58;1.70;;;;;;;18.86;61.10;99501.75;344708;28;1035;-66
2022/06/07 00:33:33;;;;;;;3.45;1.85;;;;;;;18.82;61.28;99500.28;344852;28;1153;-66
2022/06/07 00:33:45;;;;;;;3.78;1.90;;;;;;;18.77;61.34;99490.88;345080;28;1076;-66
2022/06/07 00:33:58;;;;;;;3.40;1.70;;;;;;;18.80;61.25;99496.91;344836;28;1779;-66
2022/06/07 00:34:11;;;;;;;4.43;1.70;;;;;;;18.83;61.16;99504.56;343939;28;1063;-66
2022/06/07 00:34:23;;;;;;;3.35;1.70;;;;;;;18.84;61.09;99496.56;344561;28;1908;-66
2022/06/07 00:34:35;;;;;;;2.70;1.80;;;;;;;18.81;61.33;99495.94;344827;28;1135;-66
2022/06/07 00:34:48;;;;;;;2.38;1.75;;;;;;;18.78;61.34;99502.22;343753;28;1927;-65
2022/06/07 00:35:01;;;;;;;2.55;1.70;;;;;;;18.82;61.34;99502.91;344389;28;1865;-66
2022/06/07 00:35:13;;;;;;;2.50;1.70;;;;;;;18.83;61.38;99496.66;343367;28;1075;-66
2022/06/07 00:35:26;;;;;;;2.28;1.77;;;;;;;18.77;61.18;99501.41;343796;28;1353;-66
2022/06/07 00:35:38;;;;;;;3.13;1.88;;;;;;;18.80;61.32;99489.84;343666;28;1008;-65
2022/06/07 00:35:51;;;;;;;3.35;1.77;;;;;;;18.77;61.28;99501.41;343106;28;1822;-66
2022/06/07 00:36:03;;;;;;;3.35;1.70;;;;;;;18.75;61.11;99498.03;343039;28;1849;-66
2022/06/07 00:36:15;;;;;;;2.22;1.70;;;;;;;18.73;61.11;99499.06;343567;28;1012;-66
2022/06/07 00:36:27;;;;;;;2.85;1.75;;;;;;;18.64;61.42;99500.53;342517;28;2175;-66
2022/06/07 00:36:40;;;;;;;2.67;1.60;;;;;;;18.70;61.03;99505.38;342487;28;1160;-66
2022/06/07 00:36:52;;;;;;;2.85;1.60;;;;;;;18.71;61.23;99498.31;342663;28;1751;-66
2022/06/07 00:37:05;;;;;;;2.20;1.70;;;;;;;18.71;61.30;99499.19;343375;28;1908;-66
2022/06/07 00:37:17;;;;;;;1.77;1.60;;;;;;;18.73;61.05;99494.66;343497;28;1307;-65
2022/06/07 00:37:29;;;;;;;2.30;1.55;;;;;;;18.73;61.28;99497.28;342887;28;1876;-65
2022/06/07 00:37:41;;;;;;;3.60;1.65;;;;;;;18.76;61.23;99502.34;342117;28;1752;-66
2022/06/07 00:37:53;;;;;;;4.30;1.70;;;;;;;18.80;61.24;99496.91;341684;28;1220;-66
2022/06/07 00:38:05;;;;;;;3.95;1.85;;;;;;;18.81;61.18;99501.19;339777;28;2062;-66
2022/06/07 00:38:17;;;;;;;2.50;1.80;;;;;;;18.77;61.23;99504.03;341748;28;1248;-66
2022/06/07 00:38:30;;;;;;;2.65;1.77;;;;;;;18.80;61.09;99502.16;342832;28;1337;-66
2022/06/07 00:38:43;;;;;;;2.25;1.70;;;;;;;18.81;61.09;99502.03;343305;28;1407;-66
2022/06/07 00:38:55;;;;;;;2.13;1.60;;;;;;;18.81;60.93;99501.19;341392;28;2223;-66
2022/06/07 00:39:08;;;;;;;2.80;1.60;;;;;;;18.80;61.13;99503.00;341628;28;1999;-66
2022/06/07 00:39:20;;;;;;;2.63;1.65;;;;;;;18.79;60.94;99500.44;343487;28;1577;-66
2022/06/07 00:39:32;;;;;;;2.60;1.60;;;;;;;18.79;60.90;99505.69;343741;28;1611;-66
2022/06/07 00:39:45;;;;;;;2.63;1.60;;;;;;;18.82;60.79;99502.91;343682;28;1295;-66
2022/06/07 00:39:57;;;;;;;2.75;1.60;;;;;;;18.76;60.89;99499.69;344037;28;2056;-66
2022/06/07 00:40:10;;;;;;;3.20;1.70;;;;;;;18.80;60.64;99504.81;344606;28;2014;-66
2022/06/07 00:40:22;;;;;;;3.78;1.70;;;;;;;18.82;60.46;99502.91;344737;28;1048;-66
2022/06/07 00:40:35;;;;;;;3.05;1.70;;;;;;;18.81;60.65;99496.78;343930;28;1872;-65
2022/06/07 00:40:47;;;;;;;3.75;1.67;;;;;;;18.83;60.58;99499.31;344649;28;1668;-66
2022/06/07 00:40:59;;;;;;;3.38;1.60;;;;;;;18.84;60.67;99498.38;343362;28;1706;-66
2022/06/07 00:41:11;;;;;;;3.47;1.63;;;;;;;18.81;60.47;99506.47;342950;28;1423;-66
2022/06/07 00:41:23;;;;;;;3.25;1.73;;;;;;;18.85;60.36;99497.41;343438;28;1139;-66
2022/06/07 00:41:35;;;;;;;2.83;1.60;;;;;;;18.83;60.27;99504.56;342964;28;1060;-66
2022/06/07 00:41:47;;;;;;;3.38;1.60;;;;;;;18.80;60.29;99505.63;342865;28;1781;-65
2022/06/07 00:41:59;;;;;;;3.00;1.63;;;;;;;18.79;60.54;99503.94;343181;28;1798;-66
2022/06/07 00:42:12;;;;;;;3.17;1.60;;;;;;;18.80;60.43;99499.53;343262;28;1075;-66
2022/06/07 00:42:24;;;;;;;2.90;1.60;;;;;;;18.80;60.29;99499.53;343180;28;1991;-65
2022/06/07 00:42:36;;;;;;;3.78;1.60;;;;;;;18.79;60.32;99497.81;343383;28;2232;-66
2022/06/07 00:42:48;;;;;;;3.08;1.55;;;;;;;18.80;60.49;99504.81;342840;28;1991;-66
2022/06/07 00:43:01;;;;;;;2.90;1.52;;;;;;;18.75;60.42;99499.78;343311;28;1756;-66
2022/06/07 00:43:13;;;;;;;2.53;1.58;;;;;;;18.74;60.27;99496.31;344632;28;1274;-66
2022/06/07 00:43:25;;;;;;;2.38;1.40;;;;;;;18.74;60.19;99495.50;344735;28;1315;-66
2022/06/07 00:43:38;;;;;;;2.03;1.50;;;;;;;18.73;60.19;99505.19;343598;28;1124;-66
2022/06/07 00:44:21;;;;;;;2.45;1.60;;;;;;;18.68;60.49;99501.19;343319;28;1963;-66
2022/06/07 00:44:44;;;;;;;4.30;1.60;;;;;;;18.62;60.50;99505.06;344539;28;1785;-66
2022/06/07 00:44:56;;;;;;;3.58;1.55;;;;;;;18.60;60.84;99491.16;343478;28;1072;-66
2022/06/07 00:45:18;;;;;;;2.90;1.40;;;;;;;18.68;60.57;99491.50;343641;28;1051;-66
2022/06/07 00:45:31;;;;;;;2.72;1.30;;;;;;;18.67;60.46;99500.34;344892;28;1251;-66
2022/06/07 00:45:43;;;;;;;1.95;1.40;;;;;;;18.64;60.68;99495.28;345067;28;1059;-66
2022/06/07 00:45:57;;;;;;;2.47;1.50;;;;;;;18.69;60.44;99498.44;344088;28;2142;-66
2022/06/07 00:46:11;;;;;;;3.40;1.48;;;;;;;18.71;60.37;99496.56;343719;28;2021;-66
2022/06/07 00:46:24;;;;;;;2.63;1.35;;;;;;;18.70;60.60;99494.84;343624;28;1300;-66
2022/06/07 00:46:36;;;;;;;1.83;1.38;;;;;;;18.74;60.11;99493.69;346156;28;1067;-66
2022/06/07 00:46:52;;;;;;;1.88;1.45;;;;;;;18.74;60.21;99495.50;345428;28;1978;-66
2022/06/07 00:47:12;;;;;;;4.13;1.60;;;;;;;18.79;60.08;99497.81;344519;28;1820;-66
2022/06/07 00:47:27;;;;;;;4.45;1.70;;;;;;;18.75;60.37;99492.75;343579;28;1205;-66
2022/06/07 00:47:39;;;;;;;2.63;1.70;;;;;;;18.74;60.38;99496.31;343713;28;1150;-66
2022/06/07 00:47:51;;;;;;;2.72;1.60;;;;;;;18.73;60.33;99494.66;343496;28;1960;-66
2022/06/07 00:48:07;;;;;;;2.28;1.52;;;;;;;18.75;60.19;99498.03;344604;28;1594;-66
2022/06/07 00:48:19;;;;;;;1.70;1.60;;;;;;;18.76;60.17;99494.44;343038;28;1557;-66
2022/06/07 00:48:31;;;;;;;2.67;1.60;;;;;;;18.81;60.04;99496.78;345484;28;1159;-66
2022/06/07 00:48:45;;;;;;;2.85;1.50;;;;;;;18.80;60.12;99495.09;345991;28;1804;-66
2022/06/07 00:48:57;;;;;;;2.28;1.40;;;;;;;18.79;60.16;99497.81;342483;28;2029;-66
2022/06/07 00:49:12;;;;;;;1.70;1.40;;;;;;;18.81;60.18;99501.19;344042;28;1321;-67
2022/06/07 00:49:26;;;;;;;2.17;1.50;;;;;;;18.81;59.96;99493.31;344615;28;908;-66
2022/06/07 00:49:49;;;;;;;2.78;1.63;;;;;;;18.82;60.17;99492.38;343499;28;1389;-66
2022/06/07 00:50:22;;;;;;;2.03;1.67;;;;;;;18.85;59.74;99497.41;343585;28;1853;-66
2022/06/07 00:50:59;;;;;;;1.75;1.40;;;;;;;18.78;60.05;99494.34;343268;28;1367;-66
2022/06/07 00:51:12;;;;;;;2.42;1.45;;;;;;;18.85;59.76;99498.25;343525;28;1114;-66
2022/06/07 00:51:24;;;;;;;3.97;1.48;;;;;;;18.83;59.73;99496.66;342208;28;1052;-66
2022/06/07 00:51:36;;;;;;;4.32;1.40;;;;;;;18.75;59.95;99498.03;342995;28;2499;-66
2022/06/07 00:51:49;;;;;;;3.30;1.50;;;;;;;18.72;60.14;99498.22;344742;28;2034;-66
2022/06/07 00:52:01;;;;;;;2.20;1.60;;;;;;;18.70;60.24;99494.84;344674;28;1972;-66
2022/06/07 00:52:16;;;;;;;3.10;1.60;;;;;;;18.75;60.16;99500.66;343804;28;1676;-65
2022/06/07 00:52:30;;;;;;;3.38;1.60;;;;;;;18.74;59.86;99496.31;343943;28;1915;-66
2022/06/07 00:52:41;;;;;;;2.58;1.50;;;;;;;18.74;59.96;99496.31;344175;28;1609;-67
2022/06/07 00:52:53;;;;;;;3.25;1.33;;;;;;;18.77;60.04;99493.50;343408;28;2196;-66
2022/06/07 00:53:35;;;;;;;3.47;1.45;;;;;;;18.74;60.20;99501.59;344678;28;1917;-66
2022/06/07 00:53:47;;;;;;;2.13;1.42;;;;;;;18.82;59.71;99495.00;344648;28;1030;-66
2022/06/07 00:53:59;;;;;;;2.60;1.40;;;;;;;18.81;59.73;99495.94;343692;28;1859;-66
2022/06/07 00:54:21;;;;;;;2.78;1.40;;;;;;;18.82;59.84;99492.38;343549;28;1110;-66
2022/06/07 00:54:34;;;;;;;3.72;1.52;;;;;;;18.81;59.71;99491.50;343713;28;1493;-66
2022/06/07 00:54:47;;;;;;;3.20;1.48;;;;;;;18.82;59.88;99497.63;344427;28;1039;-65
2022/06/07 00:54:59;;;;;;;3.15;1.40;;;;;;;18.85;59.45;99490.34;344642;28;1266;-66
2022/06/07 00:55:12;;;;;;;3.00;1.40;;;;;;;18.89;59.45;99493.59;343538;28;1050;-66
2022/06/07 00:55:24;;;;;;;3.60;1.50;;;;;;;18.90;59.45;99500.56;343503;28;1318;-66
2022/06/07 00:55:36;;;;;;;3.15;1.60;;;;;;;18.92;59.28;99498.69;343568;28;1219;-66
2022/06/07 00:55:48;;;;;;;2.00;1.50;;;;;;;18.92;59.03;99496.03;342852;28;2240;-66
2022/06/07 00:56:02;;;;;;;2.30;1.50;;;;;;;18.92;59.05;99493.41;342999;28;1626;-66
2022/06/07 00:56:14;;;;;;;2.55;1.50;;;;;;;18.93;59.22;99500.34;342178;28;1401;-67
2022/06/07 00:56:26;;;;;;;2.30;1.48;;;;;;;18.88;59.30;99490.13;342232;28;1388;-66
2022/06/07 00:56:38;;;;;;;2.17;1.42;;;;;;;18.87;59.37;99498.97;342630;28;1901;-66
2022/06/07 00:56:51;;;;;;;2.33;1.30;;;;;;;18.89;59.16;99498.88;343367;28;1701;-66
2022/06/07 00:57:04;;;;;;;3.72;1.40;;;;;;;18.86;59.06;99494.69;343317;28;1067;-66
2022/06/07 00:57:17;;;;;;;4.25;1.50;;;;;;;18.80;59.42;99494.28;343224;28;1076;-66
2022/06/07 00:57:29;;;;;;;3.33;1.63;;;;;;;18.79;59.58;99492.53;343204;28;1152;-66
2022/06/07 00:57:41;;;;;;;3.25;1.60;;;;;;;18.79;59.58;99493.41;343544;28;1201;-66
2022/06/07 00:57:53;;;;;;;2.90;1.40;;;;;;;18.80;59.65;99494.28;342829;28;1932;-66
2022/06/07 00:58:05;;;;;;;3.60;1.52;;;;;;;18.81;59.75;99495.94;343236;28;1387;-66
2022/06/07 00:58:18;;;;;;;2.58;1.75;;;;;;;18.83;59.31;99492.25;343441;28;1227;-66
2022/06/07 00:58:31;;;;;;;2.40;1.70;;;;;;;18.85;59.49;99497.41;344297;28;1286;-66
2022/06/07 00:58:43;;;;;;;3.07;1.57;;;;;;;18.83;59.42;99494.03;345097;28;1389;-65
2022/06/07 00:58:55;;;;;;;2.83;1.50;;;;;;;18.81;59.62;99490.66;344709;28;1181;-66
2022/06/07 00:59:07;;;;;;;3.10;1.42;;;;;;;18.85;59.59;99492.13;344639;28;1294;-66
2022/06/07 00:59:19;;;;;;;3.28;1.45;;;;;;;18.83;59.25;99488.78;344831;28;1167;-66
2022/06/07 00:59:31;;;;;;;3.08;1.50;;;;;;;18.80;59.50;99489.84;344030;28;1705;-66
2022/06/07 00:59:43;;;;;;;2.65;1.50;;;;;;;18.75;59.61;99495.41;344640;28;1117;-66
2022/06/07 00:59:55;;;;;;;2.92;1.50;;;;;;;18.75;59.55;99492.75;344745;28;1463;-66
2022/06/07 01:00:11;;;;;;;3.28;1.50;;;;;;;18.77;59.41;99490.88;344315;28;1022;-66
2022/06/07 01:00:24;;;;;;;4.53;1.60;;;;;;;18.77;59.57;99496.13;342334;28;1227;-66
2022/06/07 01:00:36;;;;;;;4.20;1.60;;;;;;;18.80;59.47;99495.09;342094;28;1887;-65
2022/06/07 01:00:49;;;;;;;3.78;1.50;;;;;;;18.80;59.78;99495.09;341749;28;1778;-65
2022/06/07 01:01:02;;;;;;;3.08;1.48;;;;;;;18.80;59.56;99494.28;343469;28;1850;-66
2022/06/07 01:01:14;;;;;;;3.17;1.50;;;;;;;18.82;59.53;99487.09;343522;28;1268;-66
2022/06/07 01:01:27;;;;;;;2.03;1.40;;;;;;;18.80;59.49;99489.00;343556;28;1234;-66
2022/06/07 01:01:40;;;;;;;2.22;1.50;;;;;;;18.83;59.69;99494.03;342053;28;1030;-66
2022/06/07 01:01:53;;;;;;;2.35;1.50;;;;;;;18.84;59.60;99495.75;342480;28;2049;-66
2022/06/07 01:02:06;;;;;;;1.83;1.40;;;;;;;18.85;59.51;99492.13;343334;28;1720;-66
2022/06/07 01:02:19;;;;;;;1.92;1.38;;;;;;;18.79;59.76;99497.81;343492;28;2027;-66
2022/06/07 01:02:31;;;;;;;2.13;1.33;;;;;;;18.77;59.75;99493.50;345284;28;1093;-66
2022/06/07 01:02:43;;;;;;;2.15;1.30;;;;;;;18.72;59.95;99498.22;344875;28;1550;-67
2022/06/07 01:02:55;;;;;;;3.63;1.40;;;;;;;18.76;59.77;99494.44;344388;28;1301;-66
2022/06/07 01:03:08;;;;;;;3.92;1.33;;;;;;;18.79;59.55;99495.16;344941;28;1278;-66
2022/06/07 01:03:20;;;;;;;2.90;1.30;;;;;;;18.76;59.75;99493.59;344900;28;1059;-67